sensor_id;sensor_type;location;lat;lon;timestamp;pressure;altitude;pressure_sealevel;temperature;humidity
60646;BME280;46462;32.608;-117.032;2023-07-29T00:01:36;99212.31;;;27.61;54.06
60646;BME280;46462;32.608;-117.032;2023-07-29T00:04:03;99207.62;;;27.66;53.97
60646;BME280;46462;32.608;-117.032;2023-07-29T00:06:34;99200.67;;;27.71;53.87
60646;BME280;46462;32.608;-117.032;2023-07-29T00:09:04;99195.63;;;27.79;53.77
60646;BME280;46462;32.608;-117.032;2023-07-29T00:11:35;99192.64;;;27.82;53.90
60646;BME280;46462;32.608;-117.032;2023-07-29T00:14:05;99190.85;;;27.84;53.89
60646;BME280;46462;32.608;-117.032;2023-07-29T00:16:36;99192.02;;;27.88;53.76
60646;BME280;46462;32.608;-117.032;2023-07-29T00:19:06;99196.79;;;27.93;53.77
60646;BME280;46462;32.608;-117.032;2023-07-29T00:21:37;99192.88;;;28.02;53.53
60646;BME280;46462;32.608;-117.032;2023-07-29T00:24:08;99195.57;;;28.03;53.62
60646;BME280;46462;32.608;-117.032;2023-07-29T00:26:38;99194.99;;;28.04;53.65
60646;BME280;46462;32.608;-117.032;2023-07-29T00:29:09;99187.58;;;28.07;53.70
60646;BME280;46462;32.608;-117.032;2023-07-29T00:31:39;99184.66;;;28.11;53.67
60646;BME280;46462;32.608;-117.032;2023-07-29T00:34:10;99184.21;;;28.11;53.79
60646;BME280;46462;32.608;-117.032;2023-07-29T00:36:40;99186.36;;;28.15;53.63
60646;BME280;46462;32.608;-117.032;2023-07-29T00:39:11;99189.96;;;28.19;53.80
60646;BME280;46462;32.608;-117.032;2023-07-29T00:41:42;99192.30;;;28.21;53.93
60646;BME280;46462;32.608;-117.032;2023-07-29T00:44:12;99189.06;;;28.27;54.01
60646;BME280;46462;32.608;-117.032;2023-07-29T00:46:43;99190.36;;;28.29;53.84
60646;BME280;46462;32.608;-117.032;2023-07-29T00:49:13;99187.42;;;28.28;54.01
60646;BME280;46462;32.608;-117.032;2023-07-29T00:51:44;99186.69;;;28.28;53.98
60646;BME280;46462;32.608;-117.032;2023-07-29T00:54:15;99187.36;;;28.28;54.00
60646;BME280;46462;32.608;-117.032;2023-07-29T00:56:45;99185.04;;;28.28;54.13
60646;BME280;46462;32.608;-117.032;2023-07-29T00:59:16;99189.82;;;28.29;54.24
60646;BME280;46462;32.608;-117.032;2023-07-29T01:01:46;99188.46;;;28.31;54.30
60646;BME280;46462;32.608;-117.032;2023-07-29T01:04:17;99188.45;;;28.32;54.26
60646;BME280;46462;32.608;-117.032;2023-07-29T01:06:53;99191.46;;;28.35;54.09
60646;BME280;46462;32.608;-117.032;2023-07-29T01:09:23;99190.88;;;28.38;54.07
60646;BME280;46462;32.608;-117.032;2023-07-29T01:11:55;99194.53;;;28.41;54.12
60646;BME280;46462;32.608;-117.032;2023-07-29T01:14:25;99191.51;;;28.45;54.04
60646;BME280;46462;32.608;-117.032;2023-07-29T01:16:55;99190.92;;;28.50;53.79
60646;BME280;46462;32.608;-117.032;2023-07-29T01:19:40;99191.13;;;28.50;53.77
60646;BME280;46462;32.608;-117.032;2023-07-29T01:21:52;99193.91;;;28.53;53.84
60646;BME280;46462;32.608;-117.032;2023-07-29T01:24:21;99193.34;;;28.54;53.84
60646;BME280;46462;32.608;-117.032;2023-07-29T01:26:51;99189.44;;;28.55;54.07
60646;BME280;46462;32.608;-117.032;2023-07-29T01:29:22;99187.43;;;28.55;54.21
60646;BME280;46462;32.608;-117.032;2023-07-29T01:31:55;99185.42;;;28.56;54.19
60646;BME280;46462;32.608;-117.032;2023-07-29T01:34:28;99187.46;;;28.57;54.25
60646;BME280;46462;32.608;-117.032;2023-07-29T01:36:55;99190.38;;;28.58;54.21
60646;BME280;46462;32.608;-117.032;2023-07-29T01:39:24;99196.10;;;28.59;54.14
60646;BME280;46462;32.608;-117.032;2023-07-29T01:41:54;99197.21;;;28.59;54.26
60646;BME280;46462;32.608;-117.032;2023-07-29T01:44:25;99200.63;;;28.60;54.30
60646;BME280;46462;32.608;-117.032;2023-07-29T01:46:56;99203.01;;;28.61;54.26
60646;BME280;46462;32.608;-117.032;2023-07-29T01:49:26;99205.58;;;28.60;54.47
60646;BME280;46462;32.608;-117.032;2023-07-29T01:51:57;99203.58;;;28.62;54.51
60646;BME280;46462;32.608;-117.032;2023-07-29T01:54:27;99197.95;;;28.61;54.41
60646;BME280;46462;32.608;-117.032;2023-07-29T01:56:58;99195.15;;;28.62;54.40
60646;BME280;46462;32.608;-117.032;2023-07-29T01:59:28;99200.74;;;28.62;54.50
60646;BME280;46462;32.608;-117.032;2023-07-29T02:01:59;99198.91;;;28.64;54.44
60646;BME280;46462;32.608;-117.032;2023-07-29T02:04:29;99200.17;;;28.64;54.47
60646;BME280;46462;32.608;-117.032;2023-07-29T02:07:00;99198.98;;;28.66;54.39
60646;BME280;46462;32.608;-117.032;2023-07-29T02:09:31;99192.25;;;28.66;54.28
60646;BME280;46462;32.608;-117.032;2023-07-29T02:12:01;99191.24;;;28.67;54.37
60646;BME280;46462;32.608;-117.032;2023-07-29T02:14:32;99193.79;;;28.66;54.42
60646;BME280;46462;32.608;-117.032;2023-07-29T02:17:03;99193.96;;;28.68;54.30
60646;BME280;46462;32.608;-117.032;2023-07-29T02:19:33;99193.45;;;28.68;54.38
60646;BME280;46462;32.608;-117.032;2023-07-29T02:22:03;99194.47;;;28.69;54.26
60646;BME280;46462;32.608;-117.032;2023-07-29T02:24:34;99197.32;;;28.68;54.23
60646;BME280;46462;32.608;-117.032;2023-07-29T02:27:04;99202.71;;;28.69;54.18
60646;BME280;46462;32.608;-117.032;2023-07-29T02:29:34;99208.02;;;28.69;54.20
60646;BME280;46462;32.608;-117.032;2023-07-29T02:32:05;99211.10;;;28.76;53.98
60646;BME280;46462;32.608;-117.032;2023-07-29T02:34:36;99218.74;;;28.77;53.87
60646;BME280;46462;32.608;-117.032;2023-07-29T02:37:06;99221.47;;;28.75;53.73
60646;BME280;46462;32.608;-117.032;2023-07-29T02:39:37;99223.53;;;28.75;53.73
60646;BME280;46462;32.608;-117.032;2023-07-29T02:42:07;99226.72;;;28.76;53.56
60646;BME280;46462;32.608;-117.032;2023-07-29T02:44:38;99224.05;;;28.75;53.46
60646;BME280;46462;32.608;-117.032;2023-07-29T02:47:08;99224.13;;;28.74;53.45
60646;BME280;46462;32.608;-117.032;2023-07-29T02:49:39;99227.56;;;28.72;53.51
60646;BME280;46462;32.608;-117.032;2023-07-29T02:52:09;99234.17;;;28.73;53.39
60646;BME280;46462;32.608;-117.032;2023-07-29T02:54:40;99238.36;;;28.72;53.38
60646;BME280;46462;32.608;-117.032;2023-07-29T02:57:10;99238.92;;;28.73;53.27
60646;BME280;46462;32.608;-117.032;2023-07-29T02:59:41;99237.22;;;28.73;53.28
60646;BME280;46462;32.608;-117.032;2023-07-29T03:02:11;99234.32;;;28.75;53.24
60646;BME280;46462;32.608;-117.032;2023-07-29T03:04:42;99236.83;;;28.74;53.36
60646;BME280;46462;32.608;-117.032;2023-07-29T03:07:13;99243.26;;;28.74;53.20
60646;BME280;46462;32.608;-117.032;2023-07-29T03:09:43;99243.32;;;28.73;53.37
60646;BME280;46462;32.608;-117.032;2023-07-29T03:12:14;99241.43;;;28.74;53.32
60646;BME280;46462;32.608;-117.032;2023-07-29T03:14:48;99243.02;;;28.73;53.28
60646;BME280;46462;32.608;-117.032;2023-07-29T03:17:15;99246.61;;;28.74;53.28
60646;BME280;46462;32.608;-117.032;2023-07-29T03:19:46;99248.15;;;28.69;53.01
60646;BME280;46462;32.608;-117.032;2023-07-29T03:22:16;99250.25;;;28.68;52.79
60646;BME280;46462;32.608;-117.032;2023-07-29T03:24:46;99249.31;;;28.67;52.86
60646;BME280;46462;32.608;-117.032;2023-07-29T03:27:17;99246.73;;;28.69;52.98
60646;BME280;46462;32.608;-117.032;2023-07-29T03:29:48;99247.31;;;28.68;53.11
60646;BME280;46462;32.608;-117.032;2023-07-29T03:32:18;99250.01;;;28.70;52.99
60646;BME280;46462;32.608;-117.032;2023-07-29T03:34:49;99248.77;;;28.70;53.01
60646;BME280;46462;32.608;-117.032;2023-07-29T03:37:19;99251.94;;;28.70;52.91
60646;BME280;46462;32.608;-117.032;2023-07-29T03:39:50;99255.38;;;28.69;53.13
60646;BME280;46462;32.608;-117.032;2023-07-29T03:42:21;99255.73;;;28.70;53.08
60646;BME280;46462;32.608;-117.032;2023-07-29T03:44:51;99256.09;;;28.69;53.05
60646;BME280;46462;32.608;-117.032;2023-07-29T03:47:22;99257.47;;;28.73;52.99
60646;BME280;46462;32.608;-117.032;2023-07-29T03:49:53;99260.83;;;28.80;52.70
60646;BME280;46462;32.608;-117.032;2023-07-29T03:52:23;99268.35;;;28.81;52.62
60646;BME280;46462;32.608;-117.032;2023-07-29T03:54:54;99271.04;;;28.78;52.60
60646;BME280;46462;32.608;-117.032;2023-07-29T03:57:24;99272.96;;;28.78;52.67
60646;BME280;46462;32.608;-117.032;2023-07-29T03:59:55;99270.20;;;28.78;52.61
60646;BME280;46462;32.608;-117.032;2023-07-29T04:02:25;99271.71;;;28.79;52.56
60646;BME280;46462;32.608;-117.032;2023-07-29T04:04:56;99275.12;;;28.78;52.52
60646;BME280;46462;32.608;-117.032;2023-07-29T04:07:26;99279.34;;;28.80;52.43
60646;BME280;46462;32.608;-117.032;2023-07-29T04:09:57;99282.43;;;28.78;52.52
60646;BME280;46462;32.608;-117.032;2023-07-29T04:12:27;99287.74;;;28.79;52.45
60646;BME280;46462;32.608;-117.032;2023-07-29T04:14:58;99294.91;;;28.77;52.42
60646;BME280;46462;32.608;-117.032;2023-07-29T04:17:28;99298.27;;;28.78;52.34
60646;BME280;46462;32.608;-117.032;2023-07-29T04:19:59;99300.93;;;28.77;52.40
60646;BME280;46462;32.608;-117.032;2023-07-29T04:22:29;99302.69;;;28.77;52.40
60646;BME280;46462;32.608;-117.032;2023-07-29T04:25:00;99306.58;;;28.77;52.39
60646;BME280;46462;32.608;-117.032;2023-07-29T04:27:31;99308.23;;;28.78;52.42
60646;BME280;46462;32.608;-117.032;2023-07-29T04:30:01;99316.52;;;28.77;52.45
60646;BME280;46462;32.608;-117.032;2023-07-29T04:32:32;99320.60;;;28.78;52.32
60646;BME280;46462;32.608;-117.032;2023-07-29T04:35:07;99321.05;;;28.75;52.40
60646;BME280;46462;32.608;-117.032;2023-07-29T04:37:36;99312.56;;;28.77;52.32
60646;BME280;46462;32.608;-117.032;2023-07-29T04:40:08;99315.86;;;28.74;52.41
60646;BME280;46462;32.608;-117.032;2023-07-29T04:42:37;99317.62;;;28.74;52.43
60646;BME280;46462;32.608;-117.032;2023-07-29T04:45:07;99314.56;;;28.70;52.55
60646;BME280;46462;32.608;-117.032;2023-07-29T04:47:38;99316.00;;;28.68;52.57
60646;BME280;46462;32.608;-117.032;2023-07-29T04:50:09;99313.76;;;28.65;52.67
60646;BME280;46462;32.608;-117.032;2023-07-29T04:52:39;99311.94;;;28.65;52.66
60646;BME280;46462;32.608;-117.032;2023-07-29T04:55:09;99314.79;;;28.61;52.72
60646;BME280;46462;32.608;-117.032;2023-07-29T04:57:40;99307.73;;;28.62;52.71
60646;BME280;46462;32.608;-117.032;2023-07-29T05:00:11;99302.78;;;28.60;52.71
60646;BME280;46462;32.608;-117.032;2023-07-29T05:02:41;99301.36;;;28.61;52.70
60646;BME280;46462;32.608;-117.032;2023-07-29T05:05:11;99302.05;;;28.59;52.73
60646;BME280;46462;32.608;-117.032;2023-07-29T05:07:41;99300.95;;;28.61;52.68
60646;BME280;46462;32.608;-117.032;2023-07-29T05:10:12;99301.39;;;28.59;52.77
60646;BME280;46462;32.608;-117.032;2023-07-29T05:12:43;99301.91;;;28.61;52.62
60646;BME280;46462;32.608;-117.032;2023-07-29T05:15:13;99301.38;;;28.60;52.67
60646;BME280;46462;32.608;-117.032;2023-07-29T05:17:44;99303.03;;;28.60;52.59
60646;BME280;46462;32.608;-117.032;2023-07-29T05:20:14;99301.77;;;28.58;52.65
60646;BME280;46462;32.608;-117.032;2023-07-29T05:22:45;99305.25;;;28.60;52.58
60646;BME280;46462;32.608;-117.032;2023-07-29T05:25:16;99310.43;;;28.60;52.57
60646;BME280;46462;32.608;-117.032;2023-07-29T05:27:46;99308.89;;;28.61;52.56
60646;BME280;46462;32.608;-117.032;2023-07-29T05:30:17;99304.83;;;28.58;52.58
60646;BME280;46462;32.608;-117.032;2023-07-29T05:32:47;99301.28;;;28.58;52.63
60646;BME280;46462;32.608;-117.032;2023-07-29T05:35:18;99298.94;;;28.54;52.61
60646;BME280;46462;32.608;-117.032;2023-07-29T05:37:49;99309.27;;;28.55;52.57
60646;BME280;46462;32.608;-117.032;2023-07-29T05:40:19;99313.39;;;28.54;52.64
60646;BME280;46462;32.608;-117.032;2023-07-29T05:42:50;99317.02;;;28.56;52.57
60646;BME280;46462;32.608;-117.032;2023-07-29T05:45:20;99326.25;;;28.55;52.55
60646;BME280;46462;32.608;-117.032;2023-07-29T05:47:51;99330.00;;;28.57;52.47
60646;BME280;46462;32.608;-117.032;2023-07-29T05:50:21;99331.47;;;28.55;52.52
60646;BME280;46462;32.608;-117.032;2023-07-29T05:52:52;99325.98;;;28.55;52.50
60646;BME280;46462;32.608;-117.032;2023-07-29T05:55:23;99318.64;;;28.53;52.61
60646;BME280;46462;32.608;-117.032;2023-07-29T05:57:54;99313.96;;;28.55;52.51
60646;BME280;46462;32.608;-117.032;2023-07-29T06:00:24;99309.49;;;28.54;52.48
60646;BME280;46462;32.608;-117.032;2023-07-29T06:02:54;99308.21;;;28.55;52.42
60646;BME280;46462;32.608;-117.032;2023-07-29T06:05:25;99306.36;;;28.55;52.34
60646;BME280;46462;32.608;-117.032;2023-07-29T06:07:56;99306.05;;;28.56;52.47
60646;BME280;46462;32.608;-117.032;2023-07-29T06:10:26;99298.00;;;28.56;52.50
60646;BME280;46462;32.608;-117.032;2023-07-29T06:12:57;99296.05;;;28.57;52.38
60646;BME280;46462;32.608;-117.032;2023-07-29T06:15:27;99296.60;;;28.54;52.43
60646;BME280;46462;32.608;-117.032;2023-07-29T06:17:58;99295.83;;;28.55;52.30
60646;BME280;46462;32.608;-117.032;2023-07-29T06:20:29;99298.97;;;28.55;52.31
60646;BME280;46462;32.608;-117.032;2023-07-29T06:22:59;99303.26;;;28.57;52.22
60646;BME280;46462;32.608;-117.032;2023-07-29T06:25:29;99301.71;;;28.57;52.12
60646;BME280;46462;32.608;-117.032;2023-07-29T06:28:00;99301.68;;;28.58;52.12
60646;BME280;46462;32.608;-117.032;2023-07-29T06:30:31;99303.61;;;28.55;52.14
60646;BME280;46462;32.608;-117.032;2023-07-29T06:33:01;99303.60;;;28.56;52.10
60646;BME280;46462;32.608;-117.032;2023-07-29T06:35:32;99297.78;;;28.55;52.07
60646;BME280;46462;32.608;-117.032;2023-07-29T06:38:02;99302.67;;;28.56;52.06
60646;BME280;46462;32.608;-117.032;2023-07-29T06:40:33;99307.46;;;28.53;52.18
60646;BME280;46462;32.608;-117.032;2023-07-29T06:43:04;99300.45;;;28.53;52.08
60646;BME280;46462;32.608;-117.032;2023-07-29T06:45:34;99290.22;;;28.49;52.13
60646;BME280;46462;32.608;-117.032;2023-07-29T06:48:05;99290.89;;;28.47;52.27
60646;BME280;46462;32.608;-117.032;2023-07-29T06:50:35;99288.47;;;28.45;52.28
60646;BME280;46462;32.608;-117.032;2023-07-29T06:53:06;99293.31;;;28.45;52.26
60646;BME280;46462;32.608;-117.032;2023-07-29T06:55:36;99298.95;;;28.43;52.30
60646;BME280;46462;32.608;-117.032;2023-07-29T06:58:07;99297.95;;;28.44;52.24
60646;BME280;46462;32.608;-117.032;2023-07-29T07:00:38;99293.94;;;28.42;52.30
60646;BME280;46462;32.608;-117.032;2023-07-29T07:03:08;99289.83;;;28.43;52.28
60646;BME280;46462;32.608;-117.032;2023-07-29T07:05:39;99292.23;;;28.43;52.22
60646;BME280;46462;32.608;-117.032;2023-07-29T07:08:10;99293.97;;;28.43;52.24
60646;BME280;46462;32.608;-117.032;2023-07-29T07:10:40;99292.63;;;28.41;52.28
60646;BME280;46462;32.608;-117.032;2023-07-29T07:13:11;99297.99;;;28.41;52.23
60646;BME280;46462;32.608;-117.032;2023-07-29T07:15:41;99303.01;;;28.41;52.22
60646;BME280;46462;32.608;-117.032;2023-07-29T07:18:11;99302.02;;;28.41;52.22
60646;BME280;46462;32.608;-117.032;2023-07-29T07:20:41;99301.18;;;28.40;52.31
60646;BME280;46462;32.608;-117.032;2023-07-29T07:23:12;99302.36;;;28.40;52.30
60646;BME280;46462;32.608;-117.032;2023-07-29T07:25:42;99298.09;;;28.39;52.20
60646;BME280;46462;32.608;-117.032;2023-07-29T07:28:13;99297.15;;;28.40;52.25
60646;BME280;46462;32.608;-117.032;2023-07-29T07:30:43;99294.30;;;28.39;52.20
60646;BME280;46462;32.608;-117.032;2023-07-29T07:33:13;99296.40;;;28.39;52.19
60646;BME280;46462;32.608;-117.032;2023-07-29T07:35:44;99296.06;;;28.38;52.19
60646;BME280;46462;32.608;-117.032;2023-07-29T07:38:15;99296.87;;;28.38;52.17
60646;BME280;46462;32.608;-117.032;2023-07-29T07:40:53;99296.48;;;28.37;52.31
60646;BME280;46462;32.608;-117.032;2023-07-29T07:43:16;99293.66;;;28.37;52.23
60646;BME280;46462;32.608;-117.032;2023-07-29T07:45:46;99293.82;;;28.36;52.23
60646;BME280;46462;32.608;-117.032;2023-07-29T07:48:16;99294.33;;;28.35;52.24
60646;BME280;46462;32.608;-117.032;2023-07-29T07:50:46;99293.50;;;28.36;52.17
60646;BME280;46462;32.608;-117.032;2023-07-29T07:53:17;99290.02;;;28.38;52.12
60646;BME280;46462;32.608;-117.032;2023-07-29T07:55:47;99282.26;;;28.37;52.11
60646;BME280;46462;32.608;-117.032;2023-07-29T07:58:17;99286.96;;;28.38;52.07
60646;BME280;46462;32.608;-117.032;2023-07-29T08:00:48;99288.77;;;28.38;52.09
60646;BME280;46462;32.608;-117.032;2023-07-29T08:03:18;99287.62;;;28.38;52.03
60646;BME280;46462;32.608;-117.032;2023-07-29T08:05:49;99285.66;;;28.38;52.03
60646;BME280;46462;32.608;-117.032;2023-07-29T08:08:18;99283.53;;;28.38;52.03
60646;BME280;46462;32.608;-117.032;2023-07-29T08:10:49;99285.49;;;28.36;52.04
60646;BME280;46462;32.608;-117.032;2023-07-29T08:13:19;99278.90;;;28.36;52.03
60646;BME280;46462;32.608;-117.032;2023-07-29T08:15:51;99275.54;;;28.35;52.04
60646;BME280;46462;32.608;-117.032;2023-07-29T08:18:21;99274.49;;;28.35;51.99
60646;BME280;46462;32.608;-117.032;2023-07-29T08:20:53;99275.36;;;28.35;52.01
60646;BME280;46462;32.608;-117.032;2023-07-29T08:23:22;99271.80;;;28.35;51.97
60646;BME280;46462;32.608;-117.032;2023-07-29T08:25:54;99273.23;;;28.35;51.97
60646;BME280;46462;32.608;-117.032;2023-07-29T08:28:23;99272.25;;;28.34;51.97
60646;BME280;46462;32.608;-117.032;2023-07-29T08:30:53;99270.92;;;28.34;51.93
60646;BME280;46462;32.608;-117.032;2023-07-29T08:33:24;99273.87;;;28.33;51.95
60646;BME280;46462;32.608;-117.032;2023-07-29T08:35:54;99274.11;;;28.32;51.96
60646;BME280;46462;32.608;-117.032;2023-07-29T08:38:24;99273.09;;;28.33;51.86
60646;BME280;46462;32.608;-117.032;2023-07-29T08:41:03;99268.68;;;28.32;51.91
60646;BME280;46462;32.608;-117.032;2023-07-29T08:43:29;99270.53;;;28.33;51.89
60646;BME280;46462;32.608;-117.032;2023-07-29T08:45:55;99271.13;;;28.32;51.90
60646;BME280;46462;32.608;-117.032;2023-07-29T08:48:32;99273.31;;;28.28;51.92
60646;BME280;46462;32.608;-117.032;2023-07-29T08:50:56;99277.77;;;28.26;51.97
60646;BME280;46462;32.608;-117.032;2023-07-29T08:53:27;99281.59;;;28.25;51.99
60646;BME280;46462;32.608;-117.032;2023-07-29T08:55:57;99281.94;;;28.22;52.10
60646;BME280;46462;32.608;-117.032;2023-07-29T08:58:28;99284.73;;;28.21;52.09
60646;BME280;46462;32.608;-117.032;2023-07-29T09:00:59;99283.70;;;28.22;52.06
60646;BME280;46462;32.608;-117.032;2023-07-29T09:03:29;99280.47;;;28.22;52.03
60646;BME280;46462;32.608;-117.032;2023-07-29T09:06:00;99273.87;;;28.23;52.00
60646;BME280;46462;32.608;-117.032;2023-07-29T09:08:30;99276.74;;;28.22;51.98
60646;BME280;46462;32.608;-117.032;2023-07-29T09:11:00;99277.75;;;28.20;52.03
60646;BME280;46462;32.608;-117.032;2023-07-29T09:13:31;99276.63;;;28.18;52.04
60646;BME280;46462;32.608;-117.032;2023-07-29T09:16:01;99272.42;;;28.18;51.97
60646;BME280;46462;32.608;-117.032;2023-07-29T09:18:31;99272.64;;;28.19;52.02
60646;BME280;46462;32.608;-117.032;2023-07-29T09:21:02;99277.77;;;28.16;52.03
60646;BME280;46462;32.608;-117.032;2023-07-29T09:23:39;99279.06;;;28.17;51.99
60646;BME280;46462;32.608;-117.032;2023-07-29T09:26:03;99281.10;;;28.15;51.96
60646;BME280;46462;32.608;-117.032;2023-07-29T09:28:34;99279.88;;;28.16;51.96
60646;BME280;46462;32.608;-117.032;2023-07-29T09:31:03;99281.60;;;28.15;51.97
60646;BME280;46462;32.608;-117.032;2023-07-29T09:33:36;99282.66;;;28.14;51.97
60646;BME280;46462;32.608;-117.032;2023-07-29T09:36:09;99279.98;;;28.13;51.97
60646;BME280;46462;32.608;-117.032;2023-07-29T09:38:35;99277.79;;;28.14;51.96
60646;BME280;46462;32.608;-117.032;2023-07-29T09:41:06;99282.20;;;28.11;51.98
60646;BME280;46462;32.608;-117.032;2023-07-29T09:43:37;99279.74;;;28.10;51.98
60646;BME280;46462;32.608;-117.032;2023-07-29T09:46:07;99282.71;;;28.10;51.97
60646;BME280;46462;32.608;-117.032;2023-07-29T09:48:38;99282.87;;;28.10;51.94
60646;BME280;46462;32.608;-117.032;2023-07-29T09:51:12;99279.37;;;28.10;51.94
60646;BME280;46462;32.608;-117.032;2023-07-29T09:53:41;99281.31;;;28.10;51.92
60646;BME280;46462;32.608;-117.032;2023-07-29T09:56:09;99283.70;;;28.11;51.82
60646;BME280;46462;32.608;-117.032;2023-07-29T09:58:39;99282.28;;;28.11;51.77
60646;BME280;46462;32.608;-117.032;2023-07-29T10:01:10;99280.58;;;28.11;51.78
60646;BME280;46462;32.608;-117.032;2023-07-29T10:03:41;99281.76;;;28.15;51.61
60646;BME280;46462;32.608;-117.032;2023-07-29T10:06:11;99283.56;;;28.13;51.67
60646;BME280;46462;32.608;-117.032;2023-07-29T10:08:43;99283.54;;;28.12;51.67
60646;BME280;46462;32.608;-117.032;2023-07-29T10:11:12;99282.92;;;28.11;51.67
60646;BME280;46462;32.608;-117.032;2023-07-29T10:13:43;99282.37;;;28.11;51.66
60646;BME280;46462;32.608;-117.032;2023-07-29T10:16:13;99287.15;;;28.10;51.69
60646;BME280;46462;32.608;-117.032;2023-07-29T10:18:44;99290.07;;;28.10;51.58
60646;BME280;46462;32.608;-117.032;2023-07-29T10:21:15;99284.04;;;28.10;51.60
60646;BME280;46462;32.608;-117.032;2023-07-29T10:23:47;99280.32;;;28.09;51.56
60646;BME280;46462;32.608;-117.032;2023-07-29T10:26:17;99279.98;;;28.09;51.54
60646;BME280;46462;32.608;-117.032;2023-07-29T10:28:47;99280.41;;;28.08;51.56
60646;BME280;46462;32.608;-117.032;2023-07-29T10:31:17;99286.53;;;28.07;51.56
60646;BME280;46462;32.608;-117.032;2023-07-29T10:33:48;99287.22;;;28.06;51.48
60646;BME280;46462;32.608;-117.032;2023-07-29T10:36:18;99287.96;;;28.05;51.56
60646;BME280;46462;32.608;-117.032;2023-07-29T10:38:50;99286.26;;;28.04;51.60
60646;BME280;46462;32.608;-117.032;2023-07-29T10:41:19;99283.50;;;28.04;51.59
60646;BME280;46462;32.608;-117.032;2023-07-29T10:43:50;99277.76;;;28.02;51.56
60646;BME280;46462;32.608;-117.032;2023-07-29T10:46:21;99277.18;;;28.01;51.58
60646;BME280;46462;32.608;-117.032;2023-07-29T10:48:56;99277.64;;;27.96;51.70
60646;BME280;46462;32.608;-117.032;2023-07-29T10:51:25;99276.41;;;27.94;51.75
60646;BME280;46462;32.608;-117.032;2023-07-29T10:53:54;99276.69;;;27.94;51.73
60646;BME280;46462;32.608;-117.032;2023-07-29T10:56:27;99273.72;;;27.94;51.72
60646;BME280;46462;32.608;-117.032;2023-07-29T10:58:56;99273.15;;;27.94;51.67
60646;BME280;46462;32.608;-117.032;2023-07-29T11:01:29;99274.51;;;27.94;51.66
60646;BME280;46462;32.608;-117.032;2023-07-29T11:06:25;99274.04;;;27.96;51.57
60646;BME280;46462;32.608;-117.032;2023-07-29T11:08:56;99270.05;;;27.96;51.53
60646;BME280;46462;32.608;-117.032;2023-07-29T11:11:27;99266.46;;;27.94;51.54
60646;BME280;46462;32.608;-117.032;2023-07-29T11:14:00;99260.31;;;27.93;51.60
60646;BME280;46462;32.608;-117.032;2023-07-29T11:16:28;99260.16;;;27.94;51.56
60646;BME280;46462;32.608;-117.032;2023-07-29T11:18:59;99265.28;;;27.93;51.56
60646;BME280;46462;32.608;-117.032;2023-07-29T11:21:29;99267.23;;;27.93;51.53
60646;BME280;46462;32.608;-117.032;2023-07-29T11:23:59;99267.27;;;27.90;51.55
60646;BME280;46462;32.608;-117.032;2023-07-29T11:26:30;99273.12;;;27.90;51.50
60646;BME280;46462;32.608;-117.032;2023-07-29T11:29:01;99275.22;;;27.90;51.42
60646;BME280;46462;32.608;-117.032;2023-07-29T11:31:39;99279.00;;;27.92;51.42
60646;BME280;46462;32.608;-117.032;2023-07-29T11:34:07;99278.24;;;27.92;51.43
60646;BME280;46462;32.608;-117.032;2023-07-29T11:36:32;99277.89;;;27.89;51.38
60646;BME280;46462;32.608;-117.032;2023-07-29T11:39:09;99286.40;;;27.88;51.32
60646;BME280;46462;32.608;-117.032;2023-07-29T11:41:34;99287.00;;;27.88;51.33
60646;BME280;46462;32.608;-117.032;2023-07-29T11:44:04;99288.44;;;27.88;51.33
60646;BME280;46462;32.608;-117.032;2023-07-29T11:46:35;99295.32;;;27.90;51.28
60646;BME280;46462;32.608;-117.032;2023-07-29T11:49:05;99298.20;;;27.89;51.35
60646;BME280;46462;32.608;-117.032;2023-07-29T11:51:36;99299.28;;;27.91;51.18
60646;BME280;46462;32.608;-117.032;2023-07-29T11:54:07;99302.69;;;27.91;51.18
60646;BME280;46462;32.608;-117.032;2023-07-29T11:56:37;99297.16;;;27.89;51.20
60646;BME280;46462;32.608;-117.032;2023-07-29T11:59:07;99293.76;;;27.88;51.23
60646;BME280;46462;32.608;-117.032;2023-07-29T12:01:39;99288.46;;;27.88;51.16
60646;BME280;46462;32.608;-117.032;2023-07-29T12:04:09;99285.14;;;27.88;51.09
60646;BME280;46462;32.608;-117.032;2023-07-29T12:06:40;99282.37;;;27.87;51.06
60646;BME280;46462;32.608;-117.032;2023-07-29T12:09:10;99279.38;;;27.85;51.06
60646;BME280;46462;32.608;-117.032;2023-07-29T12:11:41;99281.60;;;27.86;50.90
60646;BME280;46462;32.608;-117.032;2023-07-29T12:14:11;99285.73;;;27.85;51.00
60646;BME280;46462;32.608;-117.032;2023-07-29T12:16:42;99285.97;;;27.85;51.00
60646;BME280;46462;32.608;-117.032;2023-07-29T12:19:13;99286.62;;;27.85;51.00
60646;BME280;46462;32.608;-117.032;2023-07-29T12:21:43;99284.24;;;27.85;51.03
60646;BME280;46462;32.608;-117.032;2023-07-29T12:24:13;99287.11;;;27.80;51.09
60646;BME280;46462;32.608;-117.032;2023-07-29T12:26:44;99288.25;;;27.81;50.98
60646;BME280;46462;32.608;-117.032;2023-07-29T12:29:15;99288.16;;;27.83;50.94
60646;BME280;46462;32.608;-117.032;2023-07-29T12:31:45;99285.45;;;27.83;51.01
60646;BME280;46462;32.608;-117.032;2023-07-29T12:34:18;99282.07;;;27.79;51.13
60646;BME280;46462;32.608;-117.032;2023-07-29T12:36:48;99285.51;;;27.80;51.04
60646;BME280;46462;32.608;-117.032;2023-07-29T12:39:19;99296.13;;;27.80;51.02
60646;BME280;46462;32.608;-117.032;2023-07-29T12:41:48;99301.38;;;27.78;51.09
60646;BME280;46462;32.608;-117.032;2023-07-29T12:44:18;99306.29;;;27.77;50.96
60646;BME280;46462;32.608;-117.032;2023-07-29T12:46:48;99309.48;;;27.76;51.13
60646;BME280;46462;32.608;-117.032;2023-07-29T12:49:19;99310.56;;;27.73;51.19